sensor_id;sensor_type;location;lat;lon;timestamp;temperature;humidity
55436;DHT22;41307;53.142;6.430;2022-11-02T00:02:06;12.30;99.90
55436;DHT22;41307;53.142;6.430;2022-11-02T00:04:32;12.20;99.90
55436;DHT22;41307;53.142;6.430;2022-11-02T00:06:57;12.30;99.90
55436;DHT22;41307;53.142;6.430;2022-11-02T00:09:23;12.40;99.90
55436;DHT22;41307;53.142;6.430;2022-11-02T00:11:49;12.10;99.90
55436;DHT22;41307;53.142;6.430;2022-11-02T00:14:17;12.10;99.90
55436;DHT22;41307;53.142;6.430;2022-11-02T00:16:43;12.40;99.90
55436;DHT22;41307;53.142;6.430;2022-11-02T00:19:09;12.50;99.90
55436;DHT22;41307;53.142;6.430;2022-11-02T00:21:35;12.00;99.90
55436;DHT22;41307;53.142;6.430;2022-11-02T00:24:03;11.80;99.90
55436;DHT22;41307;53.142;6.430;2022-11-02T00:26:32;11.70;99.90
55436;DHT22;41307;53.142;6.430;2022-11-02T00:28:59;11.60;99.90
55436;DHT22;41307;53.142;6.430;2022-11-02T00:31:25;11.60;99.90
55436;DHT22;41307;53.142;6.430;2022-11-02T00:33:51;11.50;99.90
55436;DHT22;41307;53.142;6.430;2022-11-02T00:36:17;11.40;99.90
55436;DHT22;41307;53.142;6.430;2022-11-02T00:38:42;11.30;99.90
55436;DHT22;41307;53.142;6.430;2022-11-02T00:41:08;11.30;99.90
55436;DHT22;41307;53.142;6.430;2022-11-02T00:43:34;11.50;99.90
55436;DHT22;41307;53.142;6.430;2022-11-02T00:46:00;11.30;99.90
55436;DHT22;41307;53.142;6.430;2022-11-02T00:48:26;11.20;99.90
55436;DHT22;41307;53.142;6.430;2022-11-02T00:50:51;11.20;99.90
55436;DHT22;41307;53.142;6.430;2022-11-02T00:53:17;11.10;99.90
55436;DHT22;41307;53.142;6.430;2022-11-02T00:55:43;11.10;99.90
55436;DHT22;41307;53.142;6.430;2022-11-02T00:58:09;11.10;99.90
55436;DHT22;41307;53.142;6.430;2022-11-02T01:00:34;11.10;99.90
55436;DHT22;41307;53.142;6.430;2022-11-02T01:03:01;11.00;99.90
55436;DHT22;41307;53.142;6.430;2022-11-02T01:05:27;11.10;99.90
55436;DHT22;41307;53.142;6.430;2022-11-02T01:07:53;11.00;99.90
55436;DHT22;41307;53.142;6.430;2022-11-02T01:10:19;11.10;99.90
55436;DHT22;41307;53.142;6.430;2022-11-02T01:12:45;11.00;99.90
55436;DHT22;41307;53.142;6.430;2022-11-02T01:15:10;11.00;99.90
55436;DHT22;41307;53.142;6.430;2022-11-02T01:17:36;11.00;99.90
55436;DHT22;41307;53.142;6.430;2022-11-02T01:20:04;11.20;99.90
55436;DHT22;41307;53.142;6.430;2022-11-02T01:22:30;10.90;99.90
55436;DHT22;41307;53.142;6.430;2022-11-02T01:24:56;10.90;99.90
55436;DHT22;41307;53.142;6.430;2022-11-02T01:27:22;10.80;99.90
55436;DHT22;41307;53.142;6.430;2022-11-02T01:29:48;10.80;99.90
55436;DHT22;41307;53.142;6.430;2022-11-02T01:32:13;10.80;99.90
55436;DHT22;41307;53.142;6.430;2022-11-02T01:34:39;10.70;99.90
55436;DHT22;41307;53.142;6.430;2022-11-02T01:37:05;10.70;99.90
55436;DHT22;41307;53.142;6.430;2022-11-02T01:39:31;10.60;99.90
55436;DHT22;41307;53.142;6.430;2022-11-02T01:41:56;10.60;99.90
55436;DHT22;41307;53.142;6.430;2022-11-02T01:44:30;10.60;99.90
55436;DHT22;41307;53.142;6.430;2022-11-02T01:47:10;10.60;99.90
55436;DHT22;41307;53.142;6.430;2022-11-02T01:49:40;10.80;99.90
55436;DHT22;41307;53.142;6.430;2022-11-02T01:52:10;10.70;99.90
55436;DHT22;41307;53.142;6.430;2022-11-02T01:54:50;10.90;99.90
55436;DHT22;41307;53.142;6.430;2022-11-02T01:57:19;10.70;99.90
55436;DHT22;41307;53.142;6.430;2022-11-02T02:00:12;10.70;99.90
55436;DHT22;41307;53.142;6.430;2022-11-02T02:02:41;10.70;99.90
55436;DHT22;41307;53.142;6.430;2022-11-02T02:05:08;10.80;99.90
55436;DHT22;41307;53.142;6.430;2022-11-02T02:07:37;10.70;99.90
55436;DHT22;41307;53.142;6.430;2022-11-02T02:10:05;10.60;99.90
55436;DHT22;41307;53.142;6.430;2022-11-02T02:12:33;10.80;99.90
55436;DHT22;41307;53.142;6.430;2022-11-02T02:14:59;10.80;99.90
55436;DHT22;41307;53.142;6.430;2022-11-02T02:17:42;10.80;99.90
55436;DHT22;41307;53.142;6.430;2022-11-02T02:34:50;10.60;99.90
55436;DHT22;41307;53.142;6.430;2022-11-02T02:37:31;10.50;99.90
55436;DHT22;41307;53.142;6.430;2022-11-02T02:40:05;10.50;99.90
55436;DHT22;41307;53.142;6.430;2022-11-02T02:42:38;10.60;99.90
55436;DHT22;41307;53.142;6.430;2022-11-02T02:45:16;10.60;99.90
55436;DHT22;41307;53.142;6.430;2022-11-02T02:47:52;10.50;99.90
55436;DHT22;41307;53.142;6.430;2022-11-02T02:50:26;10.60;99.90
55436;DHT22;41307;53.142;6.430;2022-11-02T02:52:53;10.60;99.90
55436;DHT22;41307;53.142;6.430;2022-11-02T02:55:26;11.40;99.90
55436;DHT22;41307;53.142;6.430;2022-11-02T02:57:53;10.70;99.90
55436;DHT22;41307;53.142;6.430;2022-11-02T03:00:20;10.70;99.90
55436;DHT22;41307;53.142;6.430;2022-11-02T03:02:46;10.70;99.90
55436;DHT22;41307;53.142;6.430;2022-11-02T03:05:31;10.70;99.90
55436;DHT22;41307;53.142;6.430;2022-11-02T03:08:07;10.70;99.90
55436;DHT22;41307;53.142;6.430;2022-11-02T03:10:47;10.70;99.90
55436;DHT22;41307;53.142;6.430;2022-11-02T03:13:39;10.60;99.90
55436;DHT22;41307;53.142;6.430;2022-11-02T03:18:56;10.60;99.90
55436;DHT22;41307;53.142;6.430;2022-11-02T03:21:47;10.50;99.90
55436;DHT22;41307;53.142;6.430;2022-11-02T03:24:42;10.50;99.90
55436;DHT22;41307;53.142;6.430;2022-11-02T03:29:58;10.50;99.90
55436;DHT22;41307;53.142;6.430;2022-11-02T03:35:11;10.50;99.90
55436;DHT22;41307;53.142;6.430;2022-11-02T03:37:44;10.80;99.90
55436;DHT22;41307;53.142;6.430;2022-11-02T03:40:16;11.00;99.90
55436;DHT22;41307;53.142;6.430;2022-11-02T03:42:43;10.50;99.90
55436;DHT22;41307;53.142;6.430;2022-11-02T03:45:13;10.50;99.90
55436;DHT22;41307;53.142;6.430;2022-11-02T03:47:42;10.40;99.90
55436;DHT22;41307;53.142;6.430;2022-11-02T03:50:11;10.40;99.90
55436;DHT22;41307;53.142;6.430;2022-11-02T03:52:40;10.40;99.90
55436;DHT22;41307;53.142;6.430;2022-11-02T03:55:15;10.40;99.90
55436;DHT22;41307;53.142;6.430;2022-11-02T04:00:12;10.30;99.90
55436;DHT22;41307;53.142;6.430;2022-11-02T04:02:41;10.40;99.90
55436;DHT22;41307;53.142;6.430;2022-11-02T04:05:09;10.70;99.90
55436;DHT22;41307;53.142;6.430;2022-11-02T04:07:37;10.40;99.90
55436;DHT22;41307;53.142;6.430;2022-11-02T04:10:22;10.40;99.90
55436;DHT22;41307;53.142;6.430;2022-11-02T04:12:48;10.40;99.90
55436;DHT22;41307;53.142;6.430;2022-11-02T04:15:32;10.30;99.90
55436;DHT22;41307;53.142;6.430;2022-11-02T04:17:58;10.40;99.90
55436;DHT22;41307;53.142;6.430;2022-11-02T04:20:42;10.70;99.90
55436;DHT22;41307;53.142;6.430;2022-11-02T04:23:08;10.50;99.90
55436;DHT22;41307;53.142;6.430;2022-11-02T04:25:54;10.60;99.90
55436;DHT22;41307;53.142;6.430;2022-11-02T04:28:20;10.60;99.90
55436;DHT22;41307;53.142;6.430;2022-11-02T04:30:46;11.00;99.90
55436;DHT22;41307;53.142;6.430;2022-11-02T04:33:12;10.70;99.90
55436;DHT22;41307;53.142;6.430;2022-11-02T04:36:02;10.60;99.90
55436;DHT22;41307;53.142;6.430;2022-11-02T04:38:29;10.60;99.90
55436;DHT22;41307;53.142;6.430;2022-11-02T04:41:12;10.80;99.90
55436;DHT22;41307;53.142;6.430;2022-11-02T04:43:57;10.50;99.90
55436;DHT22;41307;53.142;6.430;2022-11-02T04:46:25;10.40;99.90
55436;DHT22;41307;53.142;6.430;2022-11-02T04:48:52;10.60;99.90
55436;DHT22;41307;53.142;6.430;2022-11-02T04:51:18;10.40;99.90
55436;DHT22;41307;53.142;6.430;2022-11-02T04:53:46;10.40;99.90
55436;DHT22;41307;53.142;6.430;2022-11-02T04:56:12;10.40;99.90
55436;DHT22;41307;53.142;6.430;2022-11-02T04:58:37;10.40;99.90
55436;DHT22;41307;53.142;6.430;2022-11-02T05:01:14;10.40;99.90
55436;DHT22;41307;53.142;6.430;2022-11-02T05:03:40;10.40;99.90
55436;DHT22;41307;53.142;6.430;2022-11-02T05:06:07;10.40;99.90
55436;DHT22;41307;53.142;6.430;2022-11-02T05:08:34;10.40;99.90
55436;DHT22;41307;53.142;6.430;2022-11-02T05:11:00;10.70;99.90
55436;DHT22;41307;53.142;6.430;2022-11-02T05:13:26;10.40;99.90
55436;DHT22;41307;53.142;6.430;2022-11-02T05:15:56;10.40;99.90
55436;DHT22;41307;53.142;6.430;2022-11-02T05:18:22;10.50;99.90
55436;DHT22;41307;53.142;6.430;2022-11-02T05:20:52;10.60;99.90
55436;DHT22;41307;53.142;6.430;2022-11-02T05:23:19;10.40;99.90
55436;DHT22;41307;53.142;6.430;2022-11-02T05:25:53;10.40;99.90
55436;DHT22;41307;53.142;6.430;2022-11-02T05:28:19;10.40;99.90
55436;DHT22;41307;53.142;6.430;2022-11-02T05:30:45;10.40;99.90
55436;DHT22;41307;53.142;6.430;2022-11-02T05:33:11;10.30;99.90
55436;DHT22;41307;53.142;6.430;2022-11-02T05:35:40;10.40;99.90
55436;DHT22;41307;53.142;6.430;2022-11-02T05:38:06;10.40;99.90
55436;DHT22;41307;53.142;6.430;2022-11-02T05:40:31;10.40;99.90
55436;DHT22;41307;53.142;6.430;2022-11-02T05:43:01;10.70;99.90
55436;DHT22;41307;53.142;6.430;2022-11-02T05:45:27;10.40;99.90
55436;DHT22;41307;53.142;6.430;2022-11-02T05:47:53;10.40;99.90
55436;DHT22;41307;53.142;6.430;2022-11-02T05:50:19;10.60;99.90
55436;DHT22;41307;53.142;6.430;2022-11-02T05:52:45;10.40;99.90
55436;DHT22;41307;53.142;6.430;2022-11-02T05:55:11;10.50;99.90
55436;DHT22;41307;53.142;6.430;2022-11-02T05:57:37;10.40;99.90
55436;DHT22;41307;53.142;6.430;2022-11-02T06:00:04;10.90;99.90
55436;DHT22;41307;53.142;6.430;2022-11-02T06:02:32;10.40;99.90
55436;DHT22;41307;53.142;6.430;2022-11-02T06:04:58;10.50;99.90
55436;DHT22;41307;53.142;6.430;2022-11-02T06:07:24;10.40;99.90
55436;DHT22;41307;53.142;6.430;2022-11-02T06:09:49;10.40;99.90
55436;DHT22;41307;53.142;6.430;2022-11-02T06:12:15;10.40;99.90
55436;DHT22;41307;53.142;6.430;2022-11-02T06:14:41;10.40;99.90
55436;DHT22;41307;53.142;6.430;2022-11-02T06:17:06;10.40;99.90
55436;DHT22;41307;53.142;6.430;2022-11-02T06:19:32;10.40;99.90
55436;DHT22;41307;53.142;6.430;2022-11-02T06:21:58;10.40;99.90
55436;DHT22;41307;53.142;6.430;2022-11-02T06:24:24;10.50;99.90
55436;DHT22;41307;53.142;6.430;2022-11-02T06:26:49;10.50;99.90
55436;DHT22;41307;53.142;6.430;2022-11-02T06:29:15;10.50;99.90
55436;DHT22;41307;53.142;6.430;2022-11-02T06:31:41;10.40;99.90
55436;DHT22;41307;53.142;6.430;2022-11-02T06:34:09;11.00;99.90
55436;DHT22;41307;53.142;6.430;2022-11-02T06:36:35;10.50;99.90
55436;DHT22;41307;53.142;6.430;2022-11-02T06:39:01;10.40;99.90
55436;DHT22;41307;53.142;6.430;2022-11-02T06:41:27;10.40;99.90
55436;DHT22;41307;53.142;6.430;2022-11-02T06:43:52;10.40;99.90
55436;DHT22;41307;53.142;6.430;2022-11-02T06:46:18;10.40;99.90
55436;DHT22;41307;53.142;6.430;2022-11-02T06:48:46;10.40;99.90
55436;DHT22;41307;53.142;6.430;2022-11-02T06:51:14;10.40;99.90
55436;DHT22;41307;53.142;6.430;2022-11-02T06:53:40;10.70;99.90
55436;DHT22;41307;53.142;6.430;2022-11-02T06:56:06;10.50;99.90
55436;DHT22;41307;53.142;6.430;2022-11-02T06:58:32;10.40;99.90
55436;DHT22;41307;53.142;6.430;2022-11-02T07:01:03;10.40;99.90
55436;DHT22;41307;53.142;6.430;2022-11-02T07:03:30;10.40;99.90
55436;DHT22;41307;53.142;6.430;2022-11-02T07:05:56;10.50;99.90
55436;DHT22;41307;53.142;6.430;2022-11-02T07:08:22;11.00;99.90
55436;DHT22;41307;53.142;6.430;2022-11-02T07:10:48;10.50;99.90
55436;DHT22;41307;53.142;6.430;2022-11-02T07:16:55;10.60;99.90
55436;DHT22;41307;53.142;6.430;2022-11-02T07:19:21;10.60;99.90
55436;DHT22;41307;53.142;6.430;2022-11-02T07:21:49;10.60;99.90
55436;DHT22;41307;53.142;6.430;2022-11-02T07:24:21;10.50;99.90
55436;DHT22;41307;53.142;6.430;2022-11-02T07:27:11;10.70;99.90
55436;DHT22;41307;53.142;6.430;2022-11-02T07:29:53;10.60;99.90
55436;DHT22;41307;53.142;6.430;2022-11-02T07:32:52;10.60;99.90
55436;DHT22;41307;53.142;6.430;2022-11-02T07:35:36;10.60;99.90
55436;DHT22;41307;53.142;6.430;2022-11-02T07:38:10;10.50;99.90
55436;DHT22;41307;53.142;6.430;2022-11-02T07:43:33;10.50;99.90
55436;DHT22;41307;53.142;6.430;2022-11-02T07:46:24;10.20;99.90
55436;DHT22;41307;53.142;6.430;2022-11-02T07:49:00;10.40;99.90
55436;DHT22;41307;53.142;6.430;2022-11-02T07:51:54;10.60;99.90
55436;DHT22;41307;53.142;6.430;2022-11-02T07:54:40;10.30;99.90
55436;DHT22;41307;53.142;6.430;2022-11-02T07:57:09;10.40;99.90
55436;DHT22;41307;53.142;6.430;2022-11-02T08:00:18;10.40;99.90
55436;DHT22;41307;53.142;6.430;2022-11-02T08:03:04;10.40;99.90
55436;DHT22;41307;53.142;6.430;2022-11-02T08:05:37;10.40;99.90
55436;DHT22;41307;53.142;6.430;2022-11-02T08:10:38;10.40;99.90
55436;DHT22;41307;53.142;6.430;2022-11-02T08:13:04;10.60;99.90
55436;DHT22;41307;53.142;6.430;2022-11-02T08:15:31;10.80;99.90
55436;DHT22;41307;53.142;6.430;2022-11-02T08:18:06;10.90;99.90
55436;DHT22;41307;53.142;6.430;2022-11-02T08:20:36;10.80;99.90
55436;DHT22;41307;53.142;6.430;2022-11-02T08:23:02;10.90;99.90
55436;DHT22;41307;53.142;6.430;2022-11-02T08:25:29;10.90;99.90
55436;DHT22;41307;53.142;6.430;2022-11-02T08:27:58;11.00;99.90
55436;DHT22;41307;53.142;6.430;2022-11-02T08:30:30;10.90;99.90
55436;DHT22;41307;53.142;6.430;2022-11-02T08:33:08;11.00;99.90
55436;DHT22;41307;53.142;6.430;2022-11-02T08:35:38;11.10;99.90
55436;DHT22;41307;53.142;6.430;2022-11-02T08:38:07;11.50;99.90
55436;DHT22;41307;53.142;6.430;2022-11-02T08:40:33;11.80;99.90
55436;DHT22;41307;53.142;6.430;2022-11-02T08:43:02;12.20;99.90
55436;DHT22;41307;53.142;6.430;2022-11-02T08:45:30;12.90;99.90
55436;DHT22;41307;53.142;6.430;2022-11-02T08:47:56;13.60;99.90
55436;DHT22;41307;53.142;6.430;2022-11-02T08:50:23;14.30;99.90
55436;DHT22;41307;53.142;6.430;2022-11-02T08:52:49;14.80;99.90
55436;DHT22;41307;53.142;6.430;2022-11-02T08:55:15;15.10;99.90
55436;DHT22;41307;53.142;6.430;2022-11-02T08:57:52;15.70;99.90
55436;DHT22;41307;53.142;6.430;2022-11-02T09:00:21;16.20;99.90
55436;DHT22;41307;53.142;6.430;2022-11-02T09:05:34;16.10;99.90
55436;DHT22;41307;53.142;6.430;2022-11-02T09:08:12;15.40;99.90
55436;DHT22;41307;53.142;6.430;2022-11-02T09:10:38;15.00;99.90
55436;DHT22;41307;53.142;6.430;2022-11-02T09:13:06;15.00;99.90
55436;DHT22;41307;53.142;6.430;2022-11-02T09:15:34;15.20;99.90
55436;DHT22;41307;53.142;6.430;2022-11-02T09:18:11;15.00;99.90
55436;DHT22;41307;53.142;6.430;2022-11-02T09:20:37;14.80;99.90
55436;DHT22;41307;53.142;6.430;2022-11-02T09:23:03;15.00;99.90
55436;DHT22;41307;53.142;6.430;2022-11-02T09:25:28;15.50;99.90
55436;DHT22;41307;53.142;6.430;2022-11-02T09:27:56;15.80;99.90
55436;DHT22;41307;53.142;6.430;2022-11-02T09:30:23;16.10;99.90
55436;DHT22;41307;53.142;6.430;2022-11-02T09:32:56;16.40;99.90
55436;DHT22;41307;53.142;6.430;2022-11-02T09:35:23;17.20;99.90
55436;DHT22;41307;53.142;6.430;2022-11-02T09:37:49;17.30;99.90
55436;DHT22;41307;53.142;6.430;2022-11-02T09:40:22;17.10;99.90
55436;DHT22;41307;53.142;6.430;2022-11-02T09:45:20;16.10;99.90
55436;DHT22;41307;53.142;6.430;2022-11-02T09:48:11;15.70;99.90
55436;DHT22;41307;53.142;6.430;2022-11-02T09:51:34;16.10;99.90
55436;DHT22;41307;53.142;6.430;2022-11-02T09:53:54;16.40;99.90
55436;DHT22;41307;53.142;6.430;2022-11-02T09:56:20;16.50;99.90
55436;DHT22;41307;53.142;6.430;2022-11-02T09:59:13;16.30;99.90
55436;DHT22;41307;53.142;6.430;2022-11-02T10:09:38;16.40;99.90
55436;DHT22;41307;53.142;6.430;2022-11-02T10:12:12;17.00;99.90
55436;DHT22;41307;53.142;6.430;2022-11-02T10:17:25;18.20;99.90
55436;DHT22;41307;53.142;6.430;2022-11-02T10:19:56;18.30;99.90
55436;DHT22;41307;53.142;6.430;2022-11-02T10:22:27;18.20;99.90
55436;DHT22;41307;53.142;6.430;2022-11-02T10:24:56;17.90;99.90
55436;DHT22;41307;53.142;6.430;2022-11-02T10:27:28;17.80;99.90
55436;DHT22;41307;53.142;6.430;2022-11-02T10:30:03;18.00;99.90
55436;DHT22;41307;53.142;6.430;2022-11-02T10:32:31;17.90;99.90
55436;DHT22;41307;53.142;6.430;2022-11-02T10:34:57;18.00;99.90
55436;DHT22;41307;53.142;6.430;2022-11-02T10:37:47;18.30;99.90
55436;DHT22;41307;53.142;6.430;2022-11-02T10:43:13;18.50;99.90
55436;DHT22;41307;53.142;6.430;2022-11-02T10:48:45;17.90;99.90
55436;DHT22;41307;53.142;6.430;2022-11-02T10:51:14;17.40;99.90
55436;DHT22;41307;53.142;6.430;2022-11-02T10:53:45;16.90;99.90
55436;DHT22;41307;53.142;6.430;2022-11-02T10:56:34;16.70;99.90
55436;DHT22;41307;53.142;6.430;2022-11-02T10:59:11;16.20;99.90
55436;DHT22;41307;53.142;6.430;2022-11-02T11:04:24;16.00;99.90
55436;DHT22;41307;53.142;6.430;2022-11-02T11:06:52;15.90;99.90
55436;DHT22;41307;53.142;6.430;2022-11-02T11:09:24;15.70;99.90
55436;DHT22;41307;53.142;6.430;2022-11-02T11:11:59;15.70;99.90
55436;DHT22;41307;53.142;6.430;2022-11-02T11:14:27;15.60;99.90
55436;DHT22;41307;53.142;6.430;2022-11-02T11:16:56;15.50;99.90
55436;DHT22;41307;53.142;6.430;2022-11-02T11:19:38;15.40;99.90
55436;DHT22;41307;53.142;6.430;2022-11-02T11:22:28;15.40;99.90
55436;DHT22;41307;53.142;6.430;2022-11-02T11:27:45;14.80;99.90
55436;DHT22;41307;53.142;6.430;2022-11-02T11:32:57;14.30;99.90
55436;DHT22;41307;53.142;6.430;2022-11-02T11:35:28;14.20;99.90
55436;DHT22;41307;53.142;6.430;2022-11-02T11:38:00;14.20;99.90
55436;DHT22;41307;53.142;6.430;2022-11-02T11:40:37;14.30;99.90
55436;DHT22;41307;53.142;6.430;2022-11-02T11:43:08;14.40;99.90
55436;DHT22;41307;53.142;6.430;2022-11-02T11:45:35;14.40;99.90
55436;DHT22;41307;53.142;6.430;2022-11-02T11:48:23;14.50;99.90
55436;DHT22;41307;53.142;6.430;2022-11-02T11:50:50;14.60;99.90
55436;DHT22;41307;53.142;6.430;2022-11-02T11:53:22;14.60;99.90
55436;DHT22;41307;53.142;6.430;2022-11-02T11:55:53;14.60;99.90
55436;DHT22;41307;53.142;6.430;2022-11-02T11:58:21;14.50;99.90
55436;DHT22;41307;53.142;6.430;2022-11-02T12:01:20;14.40;99.90
55436;DHT22;41307;53.142;6.430;2022-11-02T12:03:54;14.40;99.90
55436;DHT22;41307;53.142;6.430;2022-11-02T12:06:40;14.30;99.90
55436;DHT22;41307;53.142;6.430;2022-11-02T12:09:17;14.30;99.90
55436;DHT22;41307;53.142;6.430;2022-11-02T12:12:19;14.20;99.90
55436;DHT22;41307;53.142;6.430;2022-11-02T12:15:04;14.20;99.90
55436;DHT22;41307;53.142;6.430;2022-11-02T12:17:40;14.20;99.90
55436;DHT22;41307;53.142;6.430;2022-11-02T12:31:08;14.00;99.90
55436;DHT22;41307;53.142;6.430;2022-11-02T12:36:45;14.00;99.90
55436;DHT22;41307;53.142;6.430;2022-11-02T12:42:30;13.80;99.90
55436;DHT22;41307;53.142;6.430;2022-11-02T12:45:20;14.10;99.90
55436;DHT22;41307;53.142;6.430;2022-11-02T12:47:59;14.00;99.90
55436;DHT22;41307;53.142;6.430;2022-11-02T12:53:41;14.00;99.90
55436;DHT22;41307;53.142;6.430;2022-11-02T12:56:17;13.90;99.90
55436;DHT22;41307;53.142;6.430;2022-11-02T12:58:47;14.00;99.90
55436;DHT22;41307;53.142;6.430;2022-11-02T13:01:18;13.90;99.90
55436;DHT22;41307;53.142;6.430;2022-11-02T13:04:00;13.90;99.90
55436;DHT22;41307;53.142;6.430;2022-11-02T13:06:38;13.80;99.90
55436;DHT22;41307;53.142;6.430;2022-11-02T13:09:31;13.70;99.90
55436;DHT22;41307;53.142;6.430;2022-11-02T13:12:20;13.70;99.90
55436;DHT22;41307;53.142;6.430;2022-11-02T13:14:49;13.70;99.90
55436;DHT22;41307;53.142;6.430;2022-11-02T13:17:37;13.70;99.90
55436;DHT22;41307;53.142;6.430;2022-11-02T13:22:39;13.90;99.90
55436;DHT22;41307;53.142;6.430;2022-11-02T13:25:32;14.10;99.90
55436;DHT22;41307;53.142;6.430;2022-11-02T13:28:02;14.20;99.90
55436;DHT22;41307;53.142;6.430;2022-11-02T13:30:30;14.30;99.90
55436;DHT22;41307;53.142;6.430;2022-11-02T13:33:12;14.30;99.90
55436;DHT22;41307;53.142;6.430;2022-11-02T13:35:39;14.30;99.90
55436;DHT22;41307;53.142;6.430;2022-11-02T13:41:26;14.20;99.90
55436;DHT22;41307;53.142;6.430;2022-11-02T13:49:05;14.00;99.90
55436;DHT22;41307;53.142;6.430;2022-11-02T13:59:52;13.90;99.90
55436;DHT22;41307;53.142;6.430;2022-11-02T14:02:19;14.10;99.90
55436;DHT22;41307;53.142;6.430;2022-11-02T14:04:47;13.70;99.90
55436;DHT22;41307;53.142;6.430;2022-11-02T14:07:34;13.80;99.90
55436;DHT22;41307;53.142;6.430;2022-11-02T14:10:07;13.80;99.90
55436;DHT22;41307;53.142;6.430;2022-11-02T14:12:45;13.80;99.90
55436;DHT22;41307;53.142;6.430;2022-11-02T14:38:57;13.50;99.90
55436;DHT22;41307;53.142;6.430;2022-11-02T14:44:35;13.30;99.90
55436;DHT22;41307;53.142;6.430;2022-11-02T14:47:16;13.20;99.90
55436;DHT22;41307;53.142;6.430;2022-11-02T14:49:51;13.10;99.90
55436;DHT22;41307;53.142;6.430;2022-11-02T14:52:29;13.10;99.90
55436;DHT22;41307;53.142;6.430;2022-11-02T14:55:06;13.00;99.90
55436;DHT22;41307;53.142;6.430;2022-11-02T14:57:38;13.00;99.90
55436;DHT22;41307;53.142;6.430;2022-11-02T15:00:23;12.90;99.90
55436;DHT22;41307;53.142;6.430;2022-11-02T15:02:51;12.90;99.90
55436;DHT22;41307;53.142;6.430;2022-11-02T15:07:59;12.80;99.90
55436;DHT22;41307;53.142;6.430;2022-11-02T15:16:28;12.70;99.90
55436;DHT22;41307;53.142;6.430;2022-11-02T15:31:56;12.40;99.90
55436;DHT22;41307;53.142;6.430;2022-11-02T15:34:48;12.40;99.90
55436;DHT22;41307;53.142;6.430;2022-11-02T15:37:21;12.40;99.90
55436;DHT22;41307;53.142;6.430;2022-11-02T15:39:52;12.30;99.90
55436;DHT22;41307;53.142;6.430;2022-11-02T15:58:47;12.00;99.90
55436;DHT22;41307;53.142;6.430;2022-11-02T16:01:24;12.00;99.90
55436;DHT22;41307;53.142;6.430;2022-11-02T16:03:52;12.00;99.90
55436;DHT22;41307;53.142;6.430;2022-11-02T16:06:30;12.00;99.90
55436;DHT22;41307;53.142;6.430;2022-11-02T16:08:58;11.90;99.90
55436;DHT22;41307;53.142;6.430;2022-11-02T16:11:24;11.90;99.90
55436;DHT22;41307;53.142;6.430;2022-11-02T16:13:50;11.90;99.90
55436;DHT22;41307;53.142;6.430;2022-11-02T16:16:18;11.80;99.90
55436;DHT22;41307;53.142;6.430;2022-11-02T16:18:48;11.70;99.90
55436;DHT22;41307;53.142;6.430;2022-11-02T16:21:20;11.70;99.90
55436;DHT22;41307;53.142;6.430;2022-11-02T16:23:55;11.70;99.90
55436;DHT22;41307;53.142;6.430;2022-11-02T16:26:24;11.70;99.90
55436;DHT22;41307;53.142;6.430;2022-11-02T16:28:59;11.70;99.90
55436;DHT22;41307;53.142;6.430;2022-11-02T16:31:26;11.70;99.90
55436;DHT22;41307;53.142;6.430;2022-11-02T16:33:57;11.70;99.90
55436;DHT22;41307;53.142;6.430;2022-11-02T16:36:30;11.60;99.90
55436;DHT22;41307;53.142;6.430;2022-11-02T16:39:23;11.60;99.90
55436;DHT22;41307;53.142;6.430;2022-11-02T16:41:48;11.50;99.90
55436;DHT22;41307;53.142;6.430;2022-11-02T16:44:24;11.40;99.90
55436;DHT22;41307;53.142;6.430;2022-11-02T16:49:33;11.40;99.90
55436;DHT22;41307;53.142;6.430;2022-11-02T16:52:14;11.30;99.90
55436;DHT22;41307;53.142;6.430;2022-11-02T16:54:42;11.30;99.90
55436;DHT22;41307;53.142;6.430;2022-11-02T16:57:23;11.30;99.90
55436;DHT22;41307;53.142;6.430;2022-11-02T17:02:18;11.30;99.90
55436;DHT22;41307;53.142;6.430;2022-11-02T17:04:49;11.10;99.90
55436;DHT22;41307;53.142;6.430;2022-11-02T17:07:28;11.20;99.90
55436;DHT22;41307;53.142;6.430;2022-11-02T17:09:57;11.20;99.90
55436;DHT22;41307;53.142;6.430;2022-11-02T17:14:56;11.20;99.90
55436;DHT22;41307;53.142;6.430;2022-11-02T17:19:53;11.40;99.90
55436;DHT22;41307;53.142;6.430;2022-11-02T17:24:46;11.10;99.90
55436;DHT22;41307;53.142;6.430;2022-11-02T17:27:17;11.10;99.90
55436;DHT22;41307;53.142;6.430;2022-11-02T17:29:43;11.10;99.90
55436;DHT22;41307;53.142;6.430;2022-11-02T17:32:13;11.10;99.90
55436;DHT22;41307;53.142;6.430;2022-11-02T17:34:50;11.40;99.90
55436;DHT22;41307;53.142;6.430;2022-11-02T17:37:30;11.00;99.90
55436;DHT22;41307;53.142;6.430;2022-11-02T17:40:00;11.00;99.90
55436;DHT22;41307;53.142;6.430;2022-11-02T17:42:27;11.10;99.90
55436;DHT22;41307;53.142;6.430;2022-11-02T17:45:24;11.00;99.90
55436;DHT22;41307;53.142;6.430;2022-11-02T17:47:50;11.00;99.90
55436;DHT22;41307;53.142;6.430;2022-11-02T17:50:17;11.00;99.90
55436;DHT22;41307;53.142;6.430;2022-11-02T17:52:42;11.00;99.90
55436;DHT22;41307;53.142;6.430;2022-11-02T17:55:14;11.00;99.90
55436;DHT22;41307;53.142;6.430;2022-11-02T17:57:40;10.90;99.90
55436;DHT22;41307;53.142;6.430;2022-11-02T18:00:06;10.90;99.90
55436;DHT22;41307;53.142;6.430;2022-11-02T18:02:32;10.90;99.90
55436;DHT22;41307;53.142;6.430;2022-11-02T18:04:58;10.90;99.90
55436;DHT22;41307;53.142;6.430;2022-11-02T18:07:23;10.90;99.90
55436;DHT22;41307;53.142;6.430;2022-11-02T18:09:49;10.80;99.90
55436;DHT22;41307;53.142;6.430;2022-11-02T18:12:15;10.80;99.90
55436;DHT22;41307;53.142;6.430;2022-11-02T18:14:40;11.20;99.90
55436;DHT22;41307;53.142;6.430;2022-11-02T18:17:07;10.70;99.90
55436;DHT22;41307;53.142;6.430;2022-11-02T18:19:33;10.60;99.90
55436;DHT22;41307;53.142;6.430;2022-11-02T18:21:59;10.60;99.90
55436;DHT22;41307;53.142;6.430;2022-11-02T18:24:26;10.50;99.90
55436;DHT22;41307;53.142;6.430;2022-11-02T18:26:52;10.50;99.90
55436;DHT22;41307;53.142;6.430;2022-11-02T18:29:19;10.50;99.90
55436;DHT22;41307;53.142;6.430;2022-11-02T18:31:45;10.50;99.90
55436;DHT22;41307;53.142;6.430;2022-11-02T18:34:11;10.50;99.90
55436;DHT22;41307;53.142;6.430;2022-11-02T18:36:38;10.50;99.90
55436;DHT22;41307;53.142;6.430;2022-11-02T18:39:04;10.50;99.90
55436;DHT22;41307;53.142;6.430;2022-11-02T18:41:29;10.50;99.90
55436;DHT22;41307;53.142;6.430;2022-11-02T18:44:05;10.80;99.90
55436;DHT22;41307;53.142;6.430;2022-11-02T18:46:33;10.50;99.90
55436;DHT22;41307;53.142;6.430;2022-11-02T18:48:59;10.50;99.90
55436;DHT22;41307;53.142;6.430;2022-11-02T18:51:26;10.50;99.90
55436;DHT22;41307;53.142;6.430;2022-11-02T18:53:58;10.60;99.90
55436;DHT22;41307;53.142;6.430;2022-11-02T18:56:24;11.50;99.90
55436;DHT22;41307;53.142;6.430;2022-11-02T18:58:50;10.60;99.90